sensor_id;sensor_type;location;lat;lon;timestamp;temperature;humidity
63094;DHT22;49183;51.380;0.098;2023-07-13T00:00:53;13.10;85.20
63094;DHT22;49183;51.380;0.098;2023-07-13T00:03:21;13.10;85.40
63094;DHT22;49183;51.380;0.098;2023-07-13T00:05:56;13.00;85.40
63094;DHT22;49183;51.380;0.098;2023-07-13T00:08:24;13.00;85.60
63094;DHT22;49183;51.380;0.098;2023-07-13T00:10:52;13.10;85.60
63094;DHT22;49183;51.380;0.098;2023-07-13T00:13:21;13.00;85.60
63094;DHT22;49183;51.380;0.098;2023-07-13T00:15:49;13.00;85.60
63094;DHT22;49183;51.380;0.098;2023-07-13T00:18:16;13.00;85.70
63094;DHT22;49183;51.380;0.098;2023-07-13T00:20:44;12.90;85.80
63094;DHT22;49183;51.380;0.098;2023-07-13T00:23:11;12.90;85.80
63094;DHT22;49183;51.380;0.098;2023-07-13T00:25:39;12.90;85.80
63094;DHT22;49183;51.380;0.098;2023-07-13T00:28:06;12.90;85.90
63094;DHT22;49183;51.380;0.098;2023-07-13T00:30:34;12.90;86.00
63094;DHT22;49183;51.380;0.098;2023-07-13T00:33:02;12.90;86.00
63094;DHT22;49183;51.380;0.098;2023-07-13T00:35:43;12.90;86.10
63094;DHT22;49183;51.380;0.098;2023-07-13T00:38:12;12.90;86.10
63094;DHT22;49183;51.380;0.098;2023-07-13T00:40:40;12.90;86.00
63094;DHT22;49183;51.380;0.098;2023-07-13T00:43:18;13.00;86.10
63094;DHT22;49183;51.380;0.098;2023-07-13T00:48:17;13.00;86.10
63094;DHT22;49183;51.380;0.098;2023-07-13T00:50:47;13.00;86.10
63094;DHT22;49183;51.380;0.098;2023-07-13T00:53:15;13.00;86.10
63094;DHT22;49183;51.380;0.098;2023-07-13T00:55:44;13.10;86.20
63094;DHT22;49183;51.380;0.098;2023-07-13T00:58:12;13.10;86.20
63094;DHT22;49183;51.380;0.098;2023-07-13T01:00:39;13.10;86.20
63094;DHT22;49183;51.380;0.098;2023-07-13T01:03:08;13.20;86.20
63094;DHT22;49183;51.380;0.098;2023-07-13T01:05:39;13.20;86.30
63094;DHT22;49183;51.380;0.098;2023-07-13T01:08:07;13.30;86.30
63094;DHT22;49183;51.380;0.098;2023-07-13T01:10:36;13.30;86.20
63094;DHT22;49183;51.380;0.098;2023-07-13T01:13:07;13.30;86.20
63094;DHT22;49183;51.380;0.098;2023-07-13T01:15:37;13.30;86.20
63094;DHT22;49183;51.380;0.098;2023-07-13T01:18:12;13.30;86.20
63094;DHT22;49183;51.380;0.098;2023-07-13T01:20:40;13.30;86.20
63094;DHT22;49183;51.380;0.098;2023-07-13T01:23:10;13.30;86.20
63094;DHT22;49183;51.380;0.098;2023-07-13T01:25:37;13.30;86.20
63094;DHT22;49183;51.380;0.098;2023-07-13T01:28:06;13.30;86.20
63094;DHT22;49183;51.380;0.098;2023-07-13T01:30:34;13.30;86.20
63094;DHT22;49183;51.380;0.098;2023-07-13T01:33:02;13.20;86.20
63094;DHT22;49183;51.380;0.098;2023-07-13T01:35:31;13.20;86.20
63094;DHT22;49183;51.380;0.098;2023-07-13T01:37:59;13.20;86.30
63094;DHT22;49183;51.380;0.098;2023-07-13T01:40:29;13.20;86.30
63094;DHT22;49183;51.380;0.098;2023-07-13T01:42:58;13.20;86.30
63094;DHT22;49183;51.380;0.098;2023-07-13T01:45:26;13.10;86.30
63094;DHT22;49183;51.380;0.098;2023-07-13T01:47:53;13.20;86.30
63094;DHT22;49183;51.380;0.098;2023-07-13T01:50:21;13.30;86.40
63094;DHT22;49183;51.380;0.098;2023-07-13T01:52:48;13.30;86.40
63094;DHT22;49183;51.380;0.098;2023-07-13T01:55:17;13.30;86.30
63094;DHT22;49183;51.380;0.098;2023-07-13T01:57:46;13.40;86.30
63094;DHT22;49183;51.380;0.098;2023-07-13T02:00:21;13.40;86.40
63094;DHT22;49183;51.380;0.098;2023-07-13T02:02:48;13.50;86.40
63094;DHT22;49183;51.380;0.098;2023-07-13T02:05:17;13.60;86.40
63094;DHT22;49183;51.380;0.098;2023-07-13T02:07:45;13.50;86.40
63094;DHT22;49183;51.380;0.098;2023-07-13T02:10:12;13.60;86.40
63094;DHT22;49183;51.380;0.098;2023-07-13T02:12:41;13.60;86.40
63094;DHT22;49183;51.380;0.098;2023-07-13T02:15:09;13.60;86.40
63094;DHT22;49183;51.380;0.098;2023-07-13T02:17:37;13.60;86.40
63094;DHT22;49183;51.380;0.098;2023-07-13T02:20:04;13.60;86.40
63094;DHT22;49183;51.380;0.098;2023-07-13T02:22:32;13.60;86.40
63094;DHT22;49183;51.380;0.098;2023-07-13T02:25:00;13.60;86.50
63094;DHT22;49183;51.380;0.098;2023-07-13T02:27:27;13.60;86.40
63094;DHT22;49183;51.380;0.098;2023-07-13T02:29:55;13.60;86.40
63094;DHT22;49183;51.380;0.098;2023-07-13T02:32:23;13.60;86.40
63094;DHT22;49183;51.380;0.098;2023-07-13T02:34:53;13.60;86.40
63094;DHT22;49183;51.380;0.098;2023-07-13T02:37:20;13.60;86.40
63094;DHT22;49183;51.380;0.098;2023-07-13T02:39:48;13.60;86.50
63094;DHT22;49183;51.380;0.098;2023-07-13T02:42:16;13.60;86.50
63094;DHT22;49183;51.380;0.098;2023-07-13T02:44:44;13.60;86.50
63094;DHT22;49183;51.380;0.098;2023-07-13T02:47:11;13.60;86.50
63094;DHT22;49183;51.380;0.098;2023-07-13T02:49:40;13.50;86.50
63094;DHT22;49183;51.380;0.098;2023-07-13T02:52:07;13.50;86.60
63094;DHT22;49183;51.380;0.098;2023-07-13T02:54:35;13.50;86.70
63094;DHT22;49183;51.380;0.098;2023-07-13T02:57:02;13.40;86.70
63094;DHT22;49183;51.380;0.098;2023-07-13T02:59:30;13.30;86.80
63094;DHT22;49183;51.380;0.098;2023-07-13T03:02:00;13.30;87.00
63094;DHT22;49183;51.380;0.098;2023-07-13T03:04:28;13.20;87.10
63094;DHT22;49183;51.380;0.098;2023-07-13T03:06:57;13.10;87.20
63094;DHT22;49183;51.380;0.098;2023-07-13T03:09:32;13.10;87.30
63094;DHT22;49183;51.380;0.098;2023-07-13T03:12:01;13.00;87.40
63094;DHT22;49183;51.380;0.098;2023-07-13T03:14:32;13.00;87.40
63094;DHT22;49183;51.380;0.098;2023-07-13T03:19:46;12.90;87.50
63094;DHT22;49183;51.380;0.098;2023-07-13T03:22:17;12.80;87.50
63094;DHT22;49183;51.380;0.098;2023-07-13T03:24:46;12.80;87.60
63094;DHT22;49183;51.380;0.098;2023-07-13T03:27:14;12.80;87.80
63094;DHT22;49183;51.380;0.098;2023-07-13T03:29:43;12.70;87.80
63094;DHT22;49183;51.380;0.098;2023-07-13T03:32:12;12.70;87.90
63094;DHT22;49183;51.380;0.098;2023-07-13T03:34:40;12.60;88.10
63094;DHT22;49183;51.380;0.098;2023-07-13T03:39:55;12.60;88.20
63094;DHT22;49183;51.380;0.098;2023-07-13T03:47:58;12.40;88.20
63094;DHT22;49183;51.380;0.098;2023-07-13T03:50:26;12.30;88.30
63094;DHT22;49183;51.380;0.098;2023-07-13T03:52:54;12.30;88.40
63094;DHT22;49183;51.380;0.098;2023-07-13T03:55:57;12.20;88.50
63094;DHT22;49183;51.380;0.098;2023-07-13T04:02:14;12.10;88.50
63094;DHT22;49183;51.380;0.098;2023-07-13T04:04:41;12.10;88.60
63094;DHT22;49183;51.380;0.098;2023-07-13T04:07:09;12.10;88.60
63094;DHT22;49183;51.380;0.098;2023-07-13T04:09:39;12.10;88.80
63094;DHT22;49183;51.380;0.098;2023-07-13T04:12:07;12.20;88.80
63094;DHT22;49183;51.380;0.098;2023-07-13T04:14:34;12.30;88.80
63094;DHT22;49183;51.380;0.098;2023-07-13T04:17:02;12.40;88.70
63094;DHT22;49183;51.380;0.098;2023-07-13T04:19:30;12.40;88.70
63094;DHT22;49183;51.380;0.098;2023-07-13T04:22:08;12.50;88.60
63094;DHT22;49183;51.380;0.098;2023-07-13T04:24:36;12.60;88.50
63094;DHT22;49183;51.380;0.098;2023-07-13T04:27:03;12.70;88.50
63094;DHT22;49183;51.380;0.098;2023-07-13T04:29:31;12.80;88.40
63094;DHT22;49183;51.380;0.098;2023-07-13T04:31:58;12.80;88.30
63094;DHT22;49183;51.380;0.098;2023-07-13T04:34:26;12.90;88.30
63094;DHT22;49183;51.380;0.098;2023-07-13T04:36:54;12.90;88.20
63094;DHT22;49183;51.380;0.098;2023-07-13T04:39:36;13.00;88.20
63094;DHT22;49183;51.380;0.098;2023-07-13T04:42:04;13.10;88.00
63094;DHT22;49183;51.380;0.098;2023-07-13T04:44:32;13.10;87.90
63094;DHT22;49183;51.380;0.098;2023-07-13T04:46:59;13.10;87.90
63094;DHT22;49183;51.380;0.098;2023-07-13T04:49:27;13.10;87.90
63094;DHT22;49183;51.380;0.098;2023-07-13T04:51:54;13.10;87.90
63094;DHT22;49183;51.380;0.098;2023-07-13T04:54:22;13.20;87.90
63094;DHT22;49183;51.380;0.098;2023-07-13T04:56:49;13.20;87.80
63094;DHT22;49183;51.380;0.098;2023-07-13T04:59:17;13.30;87.80
63094;DHT22;49183;51.380;0.098;2023-07-13T05:01:44;13.30;87.80
63094;DHT22;49183;51.380;0.098;2023-07-13T05:04:13;13.30;87.80
63094;DHT22;49183;51.380;0.098;2023-07-13T05:06:40;13.30;87.70
63094;DHT22;49183;51.380;0.098;2023-07-13T05:09:08;13.30;87.70
63094;DHT22;49183;51.380;0.098;2023-07-13T05:11:35;13.30;87.60
63094;DHT22;49183;51.380;0.098;2023-07-13T05:14:03;13.30;87.70
63094;DHT22;49183;51.380;0.098;2023-07-13T05:16:31;13.30;87.70
63094;DHT22;49183;51.380;0.098;2023-07-13T05:18:59;13.30;87.80
63094;DHT22;49183;51.380;0.098;2023-07-13T05:21:27;13.30;87.80
63094;DHT22;49183;51.380;0.098;2023-07-13T05:23:55;13.30;87.80
63094;DHT22;49183;51.380;0.098;2023-07-13T05:26:26;13.40;87.70
63094;DHT22;49183;51.380;0.098;2023-07-13T05:28:54;13.40;87.60
63094;DHT22;49183;51.380;0.098;2023-07-13T05:31:22;13.40;87.50
63094;DHT22;49183;51.380;0.098;2023-07-13T05:33:49;13.50;87.50
63094;DHT22;49183;51.380;0.098;2023-07-13T05:36:17;13.50;87.40
63094;DHT22;49183;51.380;0.098;2023-07-13T05:38:44;13.50;87.50
63094;DHT22;49183;51.380;0.098;2023-07-13T05:41:12;13.50;87.60
63094;DHT22;49183;51.380;0.098;2023-07-13T05:43:40;13.80;87.60
63094;DHT22;49183;51.380;0.098;2023-07-13T05:46:07;13.90;87.40
63094;DHT22;49183;51.380;0.098;2023-07-13T05:48:35;14.10;87.30
63094;DHT22;49183;51.380;0.098;2023-07-13T05:51:02;14.30;87.10
63094;DHT22;49183;51.380;0.098;2023-07-13T05:53:30;14.60;86.90
63094;DHT22;49183;51.380;0.098;2023-07-13T05:55:57;14.90;86.60
63094;DHT22;49183;51.380;0.098;2023-07-13T05:58:29;15.20;86.30
63094;DHT22;49183;51.380;0.098;2023-07-13T06:01:04;15.50;85.80
63094;DHT22;49183;51.380;0.098;2023-07-13T06:03:33;15.90;85.40
63094;DHT22;49183;51.380;0.098;2023-07-13T06:06:00;16.40;85.00
63094;DHT22;49183;51.380;0.098;2023-07-13T06:08:28;16.70;84.20
63094;DHT22;49183;51.380;0.098;2023-07-13T06:11:06;16.90;83.50
63094;DHT22;49183;51.380;0.098;2023-07-13T06:13:34;17.00;82.70
63094;DHT22;49183;51.380;0.098;2023-07-13T06:16:02;17.10;82.20
63094;DHT22;49183;51.380;0.098;2023-07-13T06:18:32;17.00;81.90
63094;DHT22;49183;51.380;0.098;2023-07-13T06:21:00;16.90;81.10
63094;DHT22;49183;51.380;0.098;2023-07-13T06:23:28;16.80;80.90
63094;DHT22;49183;51.380;0.098;2023-07-13T06:25:55;16.80;80.90
63094;DHT22;49183;51.380;0.098;2023-07-13T06:28:23;16.70;80.60
63094;DHT22;49183;51.380;0.098;2023-07-13T06:30:51;16.60;80.50
63094;DHT22;49183;51.380;0.098;2023-07-13T06:33:18;16.50;80.50
63094;DHT22;49183;51.380;0.098;2023-07-13T06:35:46;16.50;80.50
63094;DHT22;49183;51.380;0.098;2023-07-13T06:38:13;16.40;80.50
63094;DHT22;49183;51.380;0.098;2023-07-13T06:40:41;16.40;80.40
63094;DHT22;49183;51.380;0.098;2023-07-13T06:43:08;16.40;80.50
63094;DHT22;49183;51.380;0.098;2023-07-13T06:45:40;16.60;80.50
63094;DHT22;49183;51.380;0.098;2023-07-13T06:48:08;16.80;80.20
63094;DHT22;49183;51.380;0.098;2023-07-13T06:50:36;17.10;79.60
63094;DHT22;49183;51.380;0.098;2023-07-13T06:53:04;17.30;79.00
63094;DHT22;49183;51.380;0.098;2023-07-13T06:55:31;17.30;78.40
63094;DHT22;49183;51.380;0.098;2023-07-13T06:57:59;17.40;78.20
63094;DHT22;49183;51.380;0.098;2023-07-13T07:00:26;17.60;78.10
63094;DHT22;49183;51.380;0.098;2023-07-13T07:02:54;17.80;77.40
63094;DHT22;49183;51.380;0.098;2023-07-13T07:05:22;18.00;76.80
63094;DHT22;49183;51.380;0.098;2023-07-13T07:07:49;18.30;76.50
63094;DHT22;49183;51.380;0.098;2023-07-13T07:10:17;18.60;76.10
63094;DHT22;49183;51.380;0.098;2023-07-13T07:12:45;18.80;75.20
63094;DHT22;49183;51.380;0.098;2023-07-13T07:15:14;19.00;74.30
63094;DHT22;49183;51.380;0.098;2023-07-13T07:17:42;19.00;73.30
63094;DHT22;49183;51.380;0.098;2023-07-13T07:20:10;18.80;73.00
63094;DHT22;49183;51.380;0.098;2023-07-13T07:22:37;18.60;72.70
63094;DHT22;49183;51.380;0.098;2023-07-13T07:25:05;18.50;73.00
63094;DHT22;49183;51.380;0.098;2023-07-13T07:27:32;18.50;73.10
63094;DHT22;49183;51.380;0.098;2023-07-13T07:30:03;18.80;73.10
63094;DHT22;49183;51.380;0.098;2023-07-13T07:32:34;19.20;72.90
63094;DHT22;49183;51.380;0.098;2023-07-13T07:35:04;19.60;72.10
63094;DHT22;49183;51.380;0.098;2023-07-13T07:37:32;19.70;71.30
63094;DHT22;49183;51.380;0.098;2023-07-13T07:40:02;19.70;70.90
63094;DHT22;49183;51.380;0.098;2023-07-13T07:42:33;19.70;70.40
63094;DHT22;49183;51.380;0.098;2023-07-13T07:45:00;19.70;69.80
63094;DHT22;49183;51.380;0.098;2023-07-13T07:47:29;19.80;69.90
63094;DHT22;49183;51.380;0.098;2023-07-13T07:49:57;20.00;69.40
63094;DHT22;49183;51.380;0.098;2023-07-13T07:52:24;20.10;69.20
63094;DHT22;49183;51.380;0.098;2023-07-13T07:54:52;20.30;68.80
63094;DHT22;49183;51.380;0.098;2023-07-13T07:57:22;20.30;68.90
63094;DHT22;49183;51.380;0.098;2023-07-13T07:59:53;20.30;68.60
63094;DHT22;49183;51.380;0.098;2023-07-13T08:02:24;20.10;68.50
63094;DHT22;49183;51.380;0.098;2023-07-13T08:04:54;20.10;68.30
63094;DHT22;49183;51.380;0.098;2023-07-13T08:07:25;20.20;68.20
63094;DHT22;49183;51.380;0.098;2023-07-13T08:09:53;20.30;68.00
63094;DHT22;49183;51.380;0.098;2023-07-13T08:12:21;20.30;66.80
63094;DHT22;49183;51.380;0.098;2023-07-13T08:14:51;20.20;66.80
63094;DHT22;49183;51.380;0.098;2023-07-13T08:17:25;20.00;66.90
63094;DHT22;49183;51.380;0.098;2023-07-13T08:19:53;19.80;67.50
63094;DHT22;49183;51.380;0.098;2023-07-13T08:22:20;19.80;67.60
63094;DHT22;49183;51.380;0.098;2023-07-13T08:24:48;19.70;67.80
63094;DHT22;49183;51.380;0.098;2023-07-13T08:27:23;19.80;68.00
63094;DHT22;49183;51.380;0.098;2023-07-13T08:29:51;19.90;67.90
63094;DHT22;49183;51.380;0.098;2023-07-13T08:32:20;20.00;67.30
63094;DHT22;49183;51.380;0.098;2023-07-13T08:34:48;20.10;66.90
63094;DHT22;49183;51.380;0.098;2023-07-13T08:37:16;20.40;66.90
63094;DHT22;49183;51.380;0.098;2023-07-13T08:39:44;20.80;66.30
63094;DHT22;49183;51.380;0.098;2023-07-13T08:42:18;21.00;65.50
63094;DHT22;49183;51.380;0.098;2023-07-13T08:44:57;21.10;64.00
63094;DHT22;49183;51.380;0.098;2023-07-13T08:47:28;21.30;63.90
63094;DHT22;49183;51.380;0.098;2023-07-13T08:49:57;21.40;62.60
63094;DHT22;49183;51.380;0.098;2023-07-13T08:52:31;21.40;61.70
63094;DHT22;49183;51.380;0.098;2023-07-13T08:55:03;21.50;61.20
63094;DHT22;49183;51.380;0.098;2023-07-13T08:57:33;21.40;60.70
63094;DHT22;49183;51.380;0.098;2023-07-13T09:00:01;21.30;60.70
63094;DHT22;49183;51.380;0.098;2023-07-13T09:03:18;21.20;60.80
63094;DHT22;49183;51.380;0.098;2023-07-13T09:05:30;21.00;61.00
63094;DHT22;49183;51.380;0.098;2023-07-13T09:15:44;20.70;62.00
63094;DHT22;49183;51.380;0.098;2023-07-13T09:20:56;21.30;60.80
63094;DHT22;49183;51.380;0.098;2023-07-13T09:23:27;21.80;60.10
63094;DHT22;49183;51.380;0.098;2023-07-13T09:26:04;22.20;59.00
63094;DHT22;49183;51.380;0.098;2023-07-13T09:28:39;22.30;56.90
63094;DHT22;49183;51.380;0.098;2023-07-13T09:31:10;22.20;57.00
63094;DHT22;49183;51.380;0.098;2023-07-13T09:33:40;22.30;56.80
63094;DHT22;49183;51.380;0.098;2023-07-13T09:36:51;22.30;55.60
63094;DHT22;49183;51.380;0.098;2023-07-13T09:39:09;22.10;55.90
63094;DHT22;49183;51.380;0.098;2023-07-13T09:41:53;21.90;56.20
63094;DHT22;49183;51.380;0.098;2023-07-13T09:44:35;21.60;55.00
63094;DHT22;49183;51.380;0.098;2023-07-13T09:47:03;21.30;55.50
63094;DHT22;49183;51.380;0.098;2023-07-13T09:49:35;21.30;55.50
63094;DHT22;49183;51.380;0.098;2023-07-13T09:52:05;21.40;55.90
63094;DHT22;49183;51.380;0.098;2023-07-13T09:54:34;21.60;55.50
63094;DHT22;49183;51.380;0.098;2023-07-13T09:57:02;21.60;55.40
63094;DHT22;49183;51.380;0.098;2023-07-13T09:59:32;21.60;54.90
63094;DHT22;49183;51.380;0.098;2023-07-13T10:02:00;21.70;55.10
63094;DHT22;49183;51.380;0.098;2023-07-13T10:04:30;21.70;54.10
63094;DHT22;49183;51.380;0.098;2023-07-13T10:07:08;21.60;53.90
63094;DHT22;49183;51.380;0.098;2023-07-13T10:09:56;21.70;54.10
63094;DHT22;49183;51.380;0.098;2023-07-13T10:12:24;21.80;54.40
63094;DHT22;49183;51.380;0.098;2023-07-13T10:14:56;21.90;54.00
63094;DHT22;49183;51.380;0.098;2023-07-13T10:17:43;22.10;54.40
63094;DHT22;49183;51.380;0.098;2023-07-13T10:20:11;22.40;53.80
63094;DHT22;49183;51.380;0.098;2023-07-13T10:25:14;22.70;53.30
63094;DHT22;49183;51.380;0.098;2023-07-13T10:27:43;22.90;52.70
63094;DHT22;49183;51.380;0.098;2023-07-13T10:30:12;22.90;51.60
63094;DHT22;49183;51.380;0.098;2023-07-13T10:32:43;22.80;51.60
63094;DHT22;49183;51.380;0.098;2023-07-13T10:35:12;22.60;51.70
63094;DHT22;49183;51.380;0.098;2023-07-13T10:37:45;22.60;51.80
63094;DHT22;49183;51.380;0.098;2023-07-13T10:40:16;22.80;51.90
63094;DHT22;49183;51.380;0.098;2023-07-13T10:42:46;22.90;51.80
63094;DHT22;49183;51.380;0.098;2023-07-13T10:45:16;22.90;51.10
63094;DHT22;49183;51.380;0.098;2023-07-13T10:47:45;23.00;52.00
63094;DHT22;49183;51.380;0.098;2023-07-13T10:50:20;23.20;52.10
63094;DHT22;49183;51.380;0.098;2023-07-13T10:52:50;23.50;51.40
63094;DHT22;49183;51.380;0.098;2023-07-13T10:58:21;24.10;51.20
63094;DHT22;49183;51.380;0.098;2023-07-13T11:00:56;24.30;50.80
63094;DHT22;49183;51.380;0.098;2023-07-13T11:03:25;24.70;50.90
63094;DHT22;49183;51.380;0.098;2023-07-13T11:06:06;24.80;49.70
63094;DHT22;49183;51.380;0.098;2023-07-13T11:08:37;24.80;49.20
63094;DHT22;49183;51.380;0.098;2023-07-13T11:18:51;25.20;48.60
63094;DHT22;49183;51.380;0.098;2023-07-13T11:24:04;25.50;47.10
63094;DHT22;49183;51.380;0.098;2023-07-13T11:26:42;25.40;45.70
63094;DHT22;49183;51.380;0.098;2023-07-13T11:31:51;24.50;46.80
63094;DHT22;49183;51.380;0.098;2023-07-13T11:34:30;24.20;46.80
63094;DHT22;49183;51.380;0.098;2023-07-13T11:36:59;23.80;47.10
63094;DHT22;49183;51.380;0.098;2023-07-13T11:39:33;23.30;48.10
63094;DHT22;49183;51.380;0.098;2023-07-13T11:42:03;23.10;48.90
63094;DHT22;49183;51.380;0.098;2023-07-13T11:44:32;23.00;49.70
63094;DHT22;49183;51.380;0.098;2023-07-13T11:47:08;23.10;50.50
63094;DHT22;49183;51.380;0.098;2023-07-13T11:49:44;23.30;50.80
63094;DHT22;49183;51.380;0.098;2023-07-13T11:52:15;23.40;50.50
63094;DHT22;49183;51.380;0.098;2023-07-13T11:55:02;23.30;50.40
63094;DHT22;49183;51.380;0.098;2023-07-13T11:57:37;23.40;50.40
63094;DHT22;49183;51.380;0.098;2023-07-13T12:00:11;23.50;50.50
63094;DHT22;49183;51.380;0.098;2023-07-13T12:02:53;23.70;50.70
63094;DHT22;49183;51.380;0.098;2023-07-13T12:05:22;23.80;51.00
63094;DHT22;49183;51.380;0.098;2023-07-13T12:07:50;24.00;50.10
63094;DHT22;49183;51.380;0.098;2023-07-13T12:12:51;24.20;49.30
63094;DHT22;49183;51.380;0.098;2023-07-13T12:15:20;24.40;49.20
63094;DHT22;49183;51.380;0.098;2023-07-13T12:17:49;24.50;48.50
63094;DHT22;49183;51.380;0.098;2023-07-13T12:20:27;24.30;48.60
63094;DHT22;49183;51.380;0.098;2023-07-13T12:22:55;24.20;48.90
63094;DHT22;49183;51.380;0.098;2023-07-13T12:25:24;23.90;48.90
63094;DHT22;49183;51.380;0.098;2023-07-13T12:27:52;23.60;49.40
63094;DHT22;49183;51.380;0.098;2023-07-13T12:30:24;23.30;50.10
63094;DHT22;49183;51.380;0.098;2023-07-13T12:32:58;22.90;50.60
63094;DHT22;49183;51.380;0.098;2023-07-13T12:35:26;22.80;51.50
63094;DHT22;49183;51.380;0.098;2023-07-13T12:37:57;22.60;52.10
63094;DHT22;49183;51.380;0.098;2023-07-13T12:40:31;22.60;52.30
63094;DHT22;49183;51.380;0.098;2023-07-13T12:43:03;22.80;52.50
63094;DHT22;49183;51.380;0.098;2023-07-13T12:45:34;23.00;52.50
63094;DHT22;49183;51.380;0.098;2023-07-13T12:48:10;23.40;52.30
63094;DHT22;49183;51.380;0.098;2023-07-13T12:50:41;24.00;52.30
63094;DHT22;49183;51.380;0.098;2023-07-13T12:53:12;24.20;50.90
63094;DHT22;49183;51.380;0.098;2023-07-13T12:55:50;24.10;50.50
63094;DHT22;49183;51.380;0.098;2023-07-13T12:58:26;23.90;50.30
63094;DHT22;49183;51.380;0.098;2023-07-13T13:00:55;23.80;50.10
63094;DHT22;49183;51.380;0.098;2023-07-13T13:03:35;23.70;50.20
63094;DHT22;49183;51.380;0.098;2023-07-13T13:06:05;23.50;50.40
63094;DHT22;49183;51.380;0.098;2023-07-13T13:08:33;23.40;50.40
63094;DHT22;49183;51.380;0.098;2023-07-13T13:11:01;23.20;50.60
63094;DHT22;49183;51.380;0.098;2023-07-13T13:13:29;23.20;50.90
63094;DHT22;49183;51.380;0.098;2023-07-13T13:16:01;23.20;50.90
63094;DHT22;49183;51.380;0.098;2023-07-13T13:18:29;23.20;51.30
63094;DHT22;49183;51.380;0.098;2023-07-13T13:20:56;23.40;51.30
63094;DHT22;49183;51.380;0.098;2023-07-13T13:23:24;23.70;50.70
63094;DHT22;49183;51.380;0.098;2023-07-13T13:25:53;24.10;50.20
63094;DHT22;49183;51.380;0.098;2023-07-13T13:28:20;24.50;48.90
63094;DHT22;49183;51.380;0.098;2023-07-13T13:30:49;24.70;48.20
63094;DHT22;49183;51.380;0.098;2023-07-13T13:33:18;24.80;47.00
63094;DHT22;49183;51.380;0.098;2023-07-13T13:35:46;24.70;46.80
63094;DHT22;49183;51.380;0.098;2023-07-13T13:38:14;24.70;46.50
63094;DHT22;49183;51.380;0.098;2023-07-13T13:40:43;24.50;47.00
63094;DHT22;49183;51.380;0.098;2023-07-13T13:43:24;24.60;47.30
63094;DHT22;49183;51.380;0.098;2023-07-13T13:45:55;24.70;47.60
63094;DHT22;49183;51.380;0.098;2023-07-13T13:48:29;24.80;46.70
63094;DHT22;49183;51.380;0.098;2023-07-13T13:50:59;24.80;46.30
63094;DHT22;49183;51.380;0.098;2023-07-13T13:53:27;24.60;45.80
63094;DHT22;49183;51.380;0.098;2023-07-13T13:55:55;24.60;45.70
63094;DHT22;49183;51.380;0.098;2023-07-13T13:58:23;24.80;46.10
63094;DHT22;49183;51.380;0.098;2023-07-13T14:00:51;25.00;45.80
63094;DHT22;49183;51.380;0.098;2023-07-13T14:03:20;25.20;45.80
63094;DHT22;49183;51.380;0.098;2023-07-13T14:05:48;25.10;45.60
63094;DHT22;49183;51.380;0.098;2023-07-13T14:08:17;25.30;45.20
63094;DHT22;49183;51.380;0.098;2023-07-13T14:10:55;25.30;44.40
63094;DHT22;49183;51.380;0.098;2023-07-13T14:13:26;25.30;43.80
63094;DHT22;49183;51.380;0.098;2023-07-13T14:15:54;25.30;44.30
63094;DHT22;49183;51.380;0.098;2023-07-13T14:18:22;25.20;44.50
63094;DHT22;49183;51.380;0.098;2023-07-13T14:20:51;24.90;44.40
63094;DHT22;49183;51.380;0.098;2023-07-13T14:23:20;24.70;45.00
63094;DHT22;49183;51.380;0.098;2023-07-13T14:25:48;24.70;45.70
63094;DHT22;49183;51.380;0.098;2023-07-13T14:28:24;24.70;46.10
63094;DHT22;49183;51.380;0.098;2023-07-13T14:30:52;24.60;46.50
63094;DHT22;49183;51.380;0.098;2023-07-13T14:33:22;24.60;47.00
63094;DHT22;49183;51.380;0.098;2023-07-13T14:35:50;24.60;47.10
63094;DHT22;49183;51.380;0.098;2023-07-13T14:38:19;24.50;47.10
63094;DHT22;49183;51.380;0.098;2023-07-13T14:40:47;24.30;47.30
63094;DHT22;49183;51.380;0.098;2023-07-13T14:43:15;24.30;48.00
63094;DHT22;49183;51.380;0.098;2023-07-13T14:45:44;24.40;48.20
63094;DHT22;49183;51.380;0.098;2023-07-13T14:48:14;24.30;48.60
63094;DHT22;49183;51.380;0.098;2023-07-13T14:50:42;24.10;48.70
63094;DHT22;49183;51.380;0.098;2023-07-13T14:53:10;23.70;49.20
63094;DHT22;49183;51.380;0.098;2023-07-13T14:55:38;23.50;49.90
63094;DHT22;49183;51.380;0.098;2023-07-13T14:58:06;23.40;50.50
63094;DHT22;49183;51.380;0.098;2023-07-13T15:00:34;23.50;52.10
63094;DHT22;49183;51.380;0.098;2023-07-13T15:03:01;23.50;52.20
63094;DHT22;49183;51.380;0.098;2023-07-13T15:05:30;23.40;52.50
63094;DHT22;49183;51.380;0.098;2023-07-13T15:07:59;23.30;52.80
63094;DHT22;49183;51.380;0.098;2023-07-13T15:10:28;23.20;52.40
63094;DHT22;49183;51.380;0.098;2023-07-13T15:13:04;23.00;52.10
63094;DHT22;49183;51.380;0.098;2023-07-13T15:15:40;22.80;52.00
63094;DHT22;49183;51.380;0.098;2023-07-13T15:18:14;22.60;52.40
63094;DHT22;49183;51.380;0.098;2023-07-13T15:20:44;22.40;52.40
63094;DHT22;49183;51.380;0.098;2023-07-13T15:23:13;22.40;52.70
63094;DHT22;49183;51.380;0.098;2023-07-13T15:25:41;22.30;53.20
63094;DHT22;49183;51.380;0.098;2023-07-13T15:28:09;22.30;53.50
63094;DHT22;49183;51.380;0.098;2023-07-13T15:33:12;22.20;53.50
63094;DHT22;49183;51.380;0.098;2023-07-13T15:35:41;22.20;53.50
63094;DHT22;49183;51.380;0.098;2023-07-13T15:38:12;22.30;53.50
63094;DHT22;49183;51.380;0.098;2023-07-13T15:40:40;22.40;53.30
63094;DHT22;49183;51.380;0.098;2023-07-13T15:43:12;22.60;53.20
63094;DHT22;49183;51.380;0.098;2023-07-13T15:45:40;22.80;52.80
63094;DHT22;49183;51.380;0.098;2023-07-13T15:48:19;22.90;52.40
63094;DHT22;49183;51.380;0.098;2023-07-13T15:50:48;23.00;52.20
63094;DHT22;49183;51.380;0.098;2023-07-13T15:53:19;22.80;52.00
63094;DHT22;49183;51.380;0.098;2023-07-13T15:55:47;22.60;52.20
63094;DHT22;49183;51.380;0.098;2023-07-13T15:58:14;22.40;52.50
63094;DHT22;49183;51.380;0.098;2023-07-13T16:00:42;22.30;53.20
63094;DHT22;49183;51.380;0.098;2023-07-13T16:03:10;22.10;53.90
63094;DHT22;49183;51.380;0.098;2023-07-13T16:05:38;21.90;54.40
63094;DHT22;49183;51.380;0.098;2023-07-13T16:08:05;21.80;54.50
63094;DHT22;49183;51.380;0.098;2023-07-13T16:10:35;21.80;54.80
63094;DHT22;49183;51.380;0.098;2023-07-13T16:13:04;22.00;54.90
63094;DHT22;49183;51.380;0.098;2023-07-13T16:15:32;22.00;54.80
63094;DHT22;49183;51.380;0.098;2023-07-13T16:18:00;22.00;55.00
63094;DHT22;49183;51.380;0.098;2023-07-13T16:20:28;21.80;55.10
63094;DHT22;49183;51.380;0.098;2023-07-13T16:22:56;21.70;55.40
63094;DHT22;49183;51.380;0.098;2023-07-13T16:25:25;21.50;55.70
63094;DHT22;49183;51.380;0.098;2023-07-13T16:27:53;21.40;56.00
63094;DHT22;49183;51.380;0.098;2023-07-13T16:30:21;21.30;56.20
63094;DHT22;49183;51.380;0.098;2023-07-13T16:32:50;21.30;56.60
63094;DHT22;49183;51.380;0.098;2023-07-13T16:35:20;21.20;56.70
63094;DHT22;49183;51.380;0.098;2023-07-13T16:37:47;21.10;56.80